»·PEaware :: ASA24 KENV-KSLC

ASA24 :: KENV-KSLC

FLIGHT INFORMATION

Flight Status: Arrived
Operator:
Alaska Airlines
More flights by this operator :: More flights under this callsign
Pilot: Mounir D. (11581)
Aircraft: DEHAVILLAND DASH 8 400
(DH8D)
More flights by this aircraft type
Origin: KENV Wendover
United States
Destination: KSLC Salt Lake City Intl
United States
More flights between these airports :: More routes between these airports
Route: +ENV1 BVL V32 TCH
File this flight plan on PilotEdge
Remarks:
Altitude:
(Current/Filed)
15,000ft
Speed:
(Current/Filed)
330kts
Departed: 02-Mar-18 01:25 PM
Arrived: 02-Mar-18 01:53 PM
Distance/Time
Traveled:
93nm/0:28
Distance/Time
To Go:
Arrived

Flight Plot

Page will automatically refresh every two minutes.

Flight plan parsing failed; only flown route is shown


Map Options




Map Legend


Flown Route
Filed Route
Departure Airport
Arrival Airport
Navaid (VOR, NDB)
Fix

Horizontal Profiles

Position Reports

Time Latitude Longitude Heading Altitude Ground
Speed
02-Mar-18 12:31 40.727734 -114.030810 0 4244ft 0kts
02-Mar-18 12:32 40.727734 -114.030810 0 4244ft 0kts
02-Mar-18 12:33 40.727734 -114.030810 0 4244ft 0kts
02-Mar-18 12:34 40.727734 -114.030810 0 4244ft 0kts
02-Mar-18 12:35 40.727734 -114.030810 0 4244ft 0kts
02-Mar-18 12:36 40.727734 -114.030810 0 4244ft 0kts
02-Mar-18 12:37 40.727734 -114.030810 0 4244ft 0kts
02-Mar-18 12:38 40.727734 -114.030810 0 4244ft 0kts
02-Mar-18 12:39 40.727734 -114.030810 0 4244ft 0kts
02-Mar-18 12:40 40.727734 -114.030810 0 4244ft 0kts
02-Mar-18 12:41 40.727734 -114.030810 0 4244ft 0kts
02-Mar-18 12:42 40.727734 -114.030810 0 4244ft 0kts
02-Mar-18 12:43 40.727734 -114.030810 0 4244ft 0kts
02-Mar-18 12:44 40.727734 -114.030810 0 4244ft 0kts
02-Mar-18 12:45 40.727734 -114.030810 0 4244ft 0kts
02-Mar-18 12:46 40.727734 -114.030810 0 4244ft 0kts
02-Mar-18 12:47 40.727734 -114.030810 0 4244ft 0kts
02-Mar-18 12:48 40.727734 -114.030810 0 4244ft 0kts
02-Mar-18 12:49 40.727734 -114.030810 0 4244ft 0kts
02-Mar-18 12:50 40.727734 -114.030810 0 4244ft 0kts
02-Mar-18 12:51 40.727734 -114.030810 0 4244ft 0kts
02-Mar-18 12:52 40.727734 -114.030810 0 4244ft 0kts
02-Mar-18 12:53 40.727734 -114.030810 0 4244ft 0kts
02-Mar-18 12:54 40.727734 -114.030810 0 4244ft 0kts
02-Mar-18 12:55 40.727734 -114.030810 0 4244ft 0kts
02-Mar-18 12:56 40.727734 -114.030810 0 4244ft 0kts
02-Mar-18 12:57 40.727734 -114.030810 0 4244ft 0kts
02-Mar-18 12:58 40.727734 -114.030810 0 4244ft 0kts
02-Mar-18 12:59 40.727734 -114.030810 0 4244ft 0kts
02-Mar-18 13:00 40.727734 -114.030810 0 4244ft 0kts
02-Mar-18 13:01 40.727734 -114.030810 0 4244ft 0kts
02-Mar-18 13:02 40.727734 -114.030810 0 4244ft 0kts
02-Mar-18 13:03 40.727734 -114.030810 0 4244ft 0kts
02-Mar-18 13:04 40.727734 -114.030810 0 4244ft 0kts
02-Mar-18 13:05 40.727734 -114.030810 0 4244ft 0kts
02-Mar-18 13:06 40.727734 -114.030810 0 4244ft 0kts
02-Mar-18 13:07 40.727734 -114.030810 0 4244ft 0kts
02-Mar-18 13:08 40.727734 -114.030810 0 4244ft 0kts
02-Mar-18 13:09 40.727734 -114.030810 0 4244ft 0kts
02-Mar-18 13:10 40.727734 -114.030810 0 4244ft 0kts
02-Mar-18 13:11 40.727734 -114.030810 0 4244ft 0kts
02-Mar-18 13:12 40.727734 -114.030810 0 4244ft 0kts
02-Mar-18 13:13 40.727734 -114.030810 0 4244ft 0kts
02-Mar-18 13:14 40.727734 -114.030810 0 4244ft 0kts
02-Mar-18 13:15 40.727734 -114.030810 0 4244ft 0kts
02-Mar-18 13:16 40.727734 -114.030810 0 4244ft 0kts
02-Mar-18 13:17 40.727734 -114.030810 0 4244ft 0kts
02-Mar-18 13:18 40.727734 -114.030810 0 4244ft 0kts
02-Mar-18 13:19 40.727734 -114.030810 0 4244ft 0kts
02-Mar-18 13:20 40.727734 -114.030810 0 4244ft 0kts
02-Mar-18 13:21 40.727734 -114.030810 0 4244ft 0kts
02-Mar-18 13:22 40.727734 -114.030810 0 4244ft 0kts
02-Mar-18 13:23 40.727734 -114.030810 0 4244ft 0kts
02-Mar-18 13:24 40.727734 -114.030810 0 4244ft 0kts
02-Mar-18 13:25 40.727734 -114.030810 0 4244ft 0kts
02-Mar-18 13:26 40.727546 -114.030812 356 4244ft 0kts
02-Mar-18 13:27 40.726790 -114.033674 254 4244ft 12kts
02-Mar-18 13:28 40.726659 -114.038104 269 4244ft 11kts
02-Mar-18 13:29 40.726269 -114.041323 251 4244ft 0kts
02-Mar-18 13:30 40.726244 -114.041437 253 4244ft 5kts
02-Mar-18 13:31 40.725613 -114.042198 131 4244ft 0kts
02-Mar-18 13:32 40.711190 -114.023476 130 4439ft 165kts
02-Mar-18 13:33 40.707829 -113.966352 74 6887ft 176kts
02-Mar-18 13:34 40.715072 -113.896843 76 9718ft 180kts
02-Mar-18 13:35 40.725551 -113.821838 87 11989ft 198kts
02-Mar-18 13:36 40.727158 -113.739109 99 14303ft 218kts
02-Mar-18 13:37 40.736764 -113.638472 88 15012ft 326kts
02-Mar-18 13:38 40.744404 -113.510049 89 15005ft 365kts
02-Mar-18 13:39 40.755036 -113.374957 88 14993ft 375kts
02-Mar-18 13:40 40.765405 -113.237418 88 14970ft 377kts
02-Mar-18 13:41 40.775287 -113.099787 89 14963ft 376kts
02-Mar-18 13:42 40.785106 -112.963092 89 14963ft 373kts
02-Mar-18 13:43 40.794598 -112.826716 89 14982ft 372kts
02-Mar-18 13:44 40.803961 -112.691261 89 14946ft 371kts
02-Mar-18 13:45 40.813105 -112.555861 90 14973ft 372kts
02-Mar-18 13:46 40.822124 -112.421213 90 14025ft 353kts
02-Mar-18 13:47 40.830286 -112.299693 91 12597ft 314kts
02-Mar-18 13:48 40.837788 -112.190091 90 10917ft 288kts
02-Mar-18 13:49 40.879342 -112.125776 1 9815ft 224kts
02-Mar-18 13:50 40.936925 -112.128727 352 8192ft 217kts
02-Mar-18 13:51 40.999474 -112.130450 14 7488ft 219kts
02-Mar-18 13:52 41.032551 -112.076590 85 6558ft 185kts
02-Mar-18 13:53 41.025178 -112.020253 155 5836ft 143kts
02-Mar-18 13:54 40.983501 -112.018992 181 6412ft 153kts
02-Mar-18 13:55 40.943549 -112.014107 175 6604ft 129kts
02-Mar-18 13:56 40.907706 -112.010771 177 5813ft 136kts
02-Mar-18 13:57 40.871978 -112.006966 174 5251ft 125kts
02-Mar-18 13:58 40.837938 -112.002572 174 4954ft 130kts
02-Mar-18 13:59 40.805270 -111.999011 176 4235ft 94kts
02-Mar-18 14:00 40.791098 -111.995866 122 4234ft 8kts
02-Mar-18 14:01 40.791121 -111.990977 85 4234ft 25kts
02-Mar-18 14:02 40.789276 -111.987174 97 4234ft 14kts
02-Mar-18 14:03 40.788601 -111.985685 76 4234ft 0kts
02-Mar-18 14:04 40.788601 -111.985685 76 4234ft 0kts
02-Mar-18 14:05 40.788601 -111.985685 76 4234ft 0kts

Navigation Log

Ident Type
Flight plan parsing failed, navigation log unavailable